Time;durP1;ratioP1;P1;durP2;ratioP2;P2;SDS_P1;SDS_P2;PMS_P1;PMS_P2;Temp;Humidity;BMP_temperature;BMP_pressure;BME280_temperature;BME280_humidity;BME280_pressure;Samples;Min_cycle;Max_cycle;Signal;HPM_P1;HPM_P2
2021/07/16 00:01:06;;;;;;;1999.90;999.90;;;;;;;17.96;44.22;101007.31;4830909;29;100234;-69
2021/07/16 00:03:34;;;;;;;1999.90;999.90;;;;;;;17.94;44.21;101013.59;4829803;29;97950;-69
2021/07/16 00:06:19;;;;;;;1999.90;999.90;;;;;;;17.89;44.21;101016.31;4831589;29;97067;-69
2021/07/16 00:08:48;;;;;;;1999.90;999.90;;;;;;;17.88;44.34;101014.53;4831591;29;98019;-69
2021/07/16 00:11:16;;;;;;;1999.90;999.90;;;;;;;17.83;44.43;101016.38;4831520;29;98803;-69
2021/07/16 00:13:44;;;;;;;1999.90;999.90;;;;;;;17.85;44.54;101019.94;4831904;29;97554;-69
2021/07/16 00:16:12;;;;;;;1999.90;999.90;;;;;;;17.87;44.45;101011.84;4861355;28;97296;-69
2021/07/16 00:18:39;;;;;;;1999.90;999.90;;;;;;;17.88;44.37;101019.00;4860999;28;97798;-68
2021/07/16 00:21:07;;;;;;;1999.90;999.90;;;;;;;17.89;44.56;101021.69;4859275;28;98945;-69
2021/07/16 00:23:35;;;;;;;1999.90;999.90;;;;;;;17.90;44.34;101019.91;4830126;29;98022;-68
2021/07/16 00:26:04;;;;;;;1999.90;999.90;;;;;;;17.93;44.40;101017.19;4829958;29;98244;-68
2021/07/16 00:28:32;;;;;;;1999.90;999.90;;;;;;;17.94;44.34;101019.91;4845998;29;96898;-69
2021/07/16 00:31:00;;;;;;;1999.90;999.90;;;;;;;17.98;44.46;101023.47;4829356;29;100757;-69
2021/07/16 00:33:28;;;;;;;1999.90;999.90;;;;;;;17.99;44.35;101023.44;4831417;29;97676;-68
2021/07/16 00:35:55;;;;;;;1999.90;999.90;;;;;;;17.99;44.46;101018.06;4829238;29;97053;-69
2021/07/16 00:38:23;;;;;;;1999.90;999.90;;;;;;;17.99;44.49;101022.53;4847240;28;96940;-69
2021/07/16 00:40:51;;;;;;;1999.90;999.90;;;;;;;17.98;44.55;101024.34;4830422;29;98865;-68
2021/07/16 00:43:20;;;;;;;1999.90;999.90;;;;;;;17.95;44.62;101029.75;4828927;29;97696;-69
2021/07/16 00:45:48;;;;;;;1999.90;999.90;;;;;;;17.93;44.77;101028.84;4826379;29;97139;-69
2021/07/16 00:48:16;;;;;;;1999.90;999.90;;;;;;;17.91;44.77;101035.19;4832188;28;97488;-69
2021/07/16 00:50:45;;;;;;;1999.90;999.90;;;;;;;17.85;44.89;101041.47;4829124;29;99751;-68
2021/07/16 00:53:15;;;;;;;1999.90;999.90;;;;;;;17.78;44.97;101034.31;4829108;29;98769;-69
2021/07/16 00:55:43;;;;;;;1999.90;999.90;;;;;;;17.67;45.40;101036.19;4845524;29;97664;-69
2021/07/16 00:58:11;;;;;;;1999.90;999.90;;;;;;;17.59;45.42;101046.06;4831171;29;97813;-69
2021/07/16 01:00:41;;;;;;;1999.90;999.90;;;;;;;17.55;45.39;101044.28;4831555;29;97873;-69
2021/07/16 01:03:09;;;;;;;1999.90;999.90;;;;;;;17.51;45.52;101049.69;4859897;28;97613;-69
2021/07/16 01:05:37;;;;;;;1999.90;999.90;;;;;;;17.50;45.57;101048.78;4829691;29;97902;-68
2021/07/16 01:08:06;;;;;;;1999.90;999.90;;;;;;;17.50;45.55;101051.47;4830451;29;97809;-69
2021/07/16 01:10:33;;;;;;;1999.90;999.90;;;;;;;17.92;45.93;101053.09;4827033;29;98716;-70
2021/07/16 01:13:01;;;;;;;1999.90;999.90;;;;;;;17.66;46.25;101050.53;4830856;29;96876;-69
2021/07/16 01:15:32;;;;;;;1999.90;999.90;;;;;;;17.53;46.33;101051.47;4831533;29;96908;-69
2021/07/16 01:18:01;;;;;;;1999.90;999.90;;;;;;;17.52;46.36;101055.06;4829531;29;97148;-69
2021/07/16 01:20:31;;;;;;;1999.90;999.90;;;;;;;17.52;46.26;101057.75;4827559;29;98681;-69
2021/07/16 01:23:00;;;;;;;1999.90;999.90;;;;;;;17.52;46.31;101062.22;4829342;29;96926;-69
2021/07/16 01:25:31;;;;;;;1999.90;999.90;;;;;;;17.53;46.25;101054.16;4831327;29;97945;-69
2021/07/16 01:28:01;;;;;;;1999.90;999.90;;;;;;;17.53;46.41;101047.91;4845811;29;96987;-68
2021/07/16 01:30:31;;;;;;;1999.90;999.90;;;;;;;17.53;46.35;101056.84;4813162;29;99152;-68
2021/07/16 01:33:00;;;;;;;1999.90;999.90;;;;;;;17.49;46.57;101048.81;4830170;29;97039;-69
2021/07/16 01:35:29;;;;;;;1999.90;999.90;;;;;;;17.86;47.15;101048.63;4828025;29;97223;-69
2021/07/16 01:37:57;;;;;;;1999.90;999.90;;;;;;;17.62;47.46;101051.44;4830110;29;96853;-68
2021/07/16 01:40:26;;;;;;;1999.90;999.90;;;;;;;17.54;47.60;101050.56;4830271;29;97779;-69
2021/07/16 01:42:57;;;;;;;1999.90;999.90;;;;;;;17.87;47.91;101060.31;4828861;29;97731;-68
2021/07/16 01:45:28;;;;;;;1999.90;999.90;;;;;;;17.61;48.25;101060.41;4829466;29;96994;-69
2021/07/16 01:47:59;;;;;;;1999.90;999.90;;;;;;;17.52;48.23;101056.84;4830484;29;96970;-68
2021/07/16 01:50:27;;;;;;;1999.90;999.90;;;;;;;17.41;48.49;101061.38;4842989;29;100061;-69
2021/07/16 01:52:55;;;;;;;1999.90;999.90;;;;;;;17.31;48.54;101067.66;4831362;29;98949;-68
2021/07/16 01:55:25;;;;;;;1999.90;999.90;;;;;;;17.22;48.86;101070.34;4830214;29;96853;-69
2021/07/16 01:57:55;;;;;;;1999.90;999.90;;;;;;;17.16;48.77;101062.28;4829780;29;97933;-69
2021/07/16 02:00:25;;;;;;;1999.90;999.90;;;;;;;17.08;49.25;101075.72;4826791;29;100886;-68
2021/07/16 02:02:55;;;;;;;1999.90;999.90;;;;;;;16.99;49.47;101079.34;4826939;29;97583;-68
2021/07/16 02:05:23;;;;;;;1999.90;999.90;;;;;;;16.92;49.61;101073.97;4843019;29;97860;-69
2021/07/16 02:07:57;;;;;;;1999.90;999.90;;;;;;;16.85;49.97;101073.03;4812666;29;97023;-68
2021/07/16 02:10:25;;;;;;;1999.90;999.90;;;;;;;16.77;50.55;101073.94;4829713;29;97593;-69
2021/07/16 02:12:55;;;;;;;1999.90;999.90;;;;;;;16.70;50.29;101067.69;4828363;29;99630;-69
2021/07/16 02:15:24;;;;;;;1999.90;999.90;;;;;;;16.66;50.62;101073.91;4826067;29;96900;-69
2021/07/16 02:17:52;;;;;;;1999.90;999.90;;;;;;;16.62;50.59;101079.28;4830678;29;97395;-69
2021/07/16 02:20:22;;;;;;;1999.90;999.90;;;;;;;16.63;50.74;101075.69;4829847;29;97661;-68
2021/07/16 02:22:51;;;;;;;1999.90;999.90;;;;;;;16.67;50.78;101073.00;4829433;29;99270;-69
2021/07/16 02:25:19;;;;;;;1999.90;999.90;;;;;;;16.66;51.21;101073.00;4826668;29;97643;-69
2021/07/16 02:27:48;;;;;;;1999.90;999.90;;;;;;;16.63;51.34;101075.69;4843394;29;97361;-68
2021/07/16 02:30:19;;;;;;;1999.90;999.90;;;;;;;16.62;51.43;101074.78;4828478;29;98010;-68
2021/07/16 02:32:47;;;;;;;1999.90;999.90;;;;;;;16.67;51.35;101078.38;4830529;29;98629;-68
2021/07/16 02:35:16;;;;;;;1999.90;999.90;;;;;;;16.73;51.22;101080.22;4829707;29;97419;-68
2021/07/16 02:37:44;;;;;;;1999.90;999.90;;;;;;;16.77;51.32;101073.94;4831456;29;97764;-69
2021/07/16 02:40:14;;;;;;;1999.90;999.90;;;;;;;16.82;51.48;101080.22;4831319;29;97829;-68
2021/07/16 02:42:42;;;;;;;1999.90;999.90;;;;;;;16.82;51.75;101077.53;4862396;28;100538;-68
2021/07/16 02:45:12;;;;;;;1999.90;999.90;;;;;;;16.77;52.27;101082.00;4833195;29;97920;-68
2021/07/16 02:47:41;;;;;;;1999.90;999.90;;;;;;;16.78;51.97;101084.69;4827305;29;97574;-69
2021/07/16 02:50:10;;;;;;;1999.90;999.90;;;;;;;16.83;51.87;101085.63;4828845;29;98473;-69
2021/07/16 02:52:38;;;;;;;1999.90;999.90;;;;;;;16.85;52.17;101080.22;4831326;29;98707;-69
2021/07/16 02:55:07;;;;;;;1999.90;999.90;;;;;;;16.89;52.08;101069.47;4831078;29;96846;-68
2021/07/16 02:57:35;;;;;;;1999.90;999.90;;;;;;;16.88;52.42;101077.53;4833296;29;97043;-69
2021/07/16 03:00:05;;;;;;;1999.90;999.90;;;;;;;16.84;52.58;101075.75;4815576;29;98545;-69
2021/07/16 03:02:39;;;;;;;1999.90;999.90;;;;;;;16.86;52.71;101076.63;4833554;29;96849;-68
2021/07/16 03:05:10;;;;;;;1999.90;999.90;;;;;;;16.88;52.65;101073.06;4829926;29;97529;-68
2021/07/16 03:07:38;;;;;;;1999.90;999.90;;;;;;;16.89;52.41;101080.22;4831788;29;97345;-69
2021/07/16 03:10:08;;;;;;;1999.90;999.90;;;;;;;16.90;52.59;101091.88;4846447;29;100263;-69
2021/07/16 03:12:36;;;;;;;1999.90;999.90;;;;;;;16.86;53.05;101088.28;4832034;29;97569;-68
2021/07/16 03:15:06;;;;;;;1999.90;999.90;;;;;;;16.91;52.65;101090.97;4832063;29;97526;-68
2021/07/16 03:17:34;;;;;;;1999.90;999.90;;;;;;;16.96;52.53;101095.44;4831597;29;97411;-68
2021/07/16 03:20:01;;;;;;;1999.90;999.90;;;;;;;16.97;52.67;101088.28;4845628;29;100595;-69
2021/07/16 03:22:31;;;;;;;1999.90;999.90;;;;;;;16.95;53.03;101087.38;4831592;29;97615;-68
2021/07/16 03:24:58;;;;;;;1999.90;999.90;;;;;;;16.87;53.29;101091.88;4860864;28;96913;-68
2021/07/16 03:27:26;;;;;;;1999.90;999.90;;;;;;;16.84;53.31;101081.09;4831594;29;96937;-68
2021/07/16 03:29:54;;;;;;;1999.90;999.90;;;;;;;16.79;53.82;101088.28;4830687;29;98157;-69
2021/07/16 03:32:21;;;;;;;1999.90;999.90;;;;;;;16.74;53.80;101090.09;4832956;29;97694;-69
2021/07/16 03:34:49;;;;;;;1999.90;999.90;;;;;;;16.71;53.90;101095.44;4830767;29;98721;-68
2021/07/16 03:37:17;;;;;;;1999.90;999.90;;;;;;;16.73;53.59;101089.19;4832644;29;97814;-68
2021/07/16 03:39:49;;;;;;;1999.90;999.90;;;;;;;16.69;53.91;101092.72;4829188;29;99827;-68
2021/07/16 03:42:18;;;;;;;1999.90;999.90;;;;;;;16.71;53.83;101093.66;4830983;29;98606;-67
2021/07/16 03:44:46;;;;;;;1999.90;999.90;;;;;;;16.75;53.93;101091.84;4860904;28;97399;-68
2021/07/16 03:47:14;;;;;;;1999.90;999.90;;;;;;;16.82;53.44;101096.34;4815682;29;97788;-68
2021/07/16 03:49:43;;;;;;;1999.90;999.90;;;;;;;16.82;53.88;101099.03;4860523;28;98231;-68
2021/07/16 03:52:11;;;;;;;1999.90;999.90;;;;;;;16.83;53.57;101100.84;4861729;28;99088;-70
2021/07/16 03:54:39;;;;;;;1999.90;999.90;;;;;;;16.83;53.93;101108.91;4829255;29;97647;-69
2021/07/16 03:57:08;;;;;;;1999.90;999.90;;;;;;;16.81;53.88;101114.28;4841365;29;97229;-70
2021/07/16 03:59:36;;;;;;;1999.90;999.90;;;;;;;16.79;53.98;101107.09;4829121;29;98959;-70
2021/07/16 04:02:05;;;;;;;1999.90;999.90;;;;;;;16.83;53.80;101114.28;4823757;29;98820;-69
2021/07/16 04:04:33;;;;;;;1999.90;999.90;;;;;;;16.86;54.00;101112.50;4827156;29;97155;-69
2021/07/16 04:07:01;;;;;;;1999.90;999.90;;;;;;;16.88;53.79;101115.16;4829012;29;97223;-70
2021/07/16 04:09:30;;;;;;;1999.90;999.90;;;;;;;16.85;54.10;101113.38;4830206;29;97907;-69
2021/07/16 04:12:10;;;;;;;1999.90;999.90;;;;;;;16.82;54.28;101109.78;4844363;28;98427;-70
2021/07/16 04:14:39;;;;;;;1999.90;999.90;;;;;;;16.79;54.11;101116.06;4828950;29;96881;-70
2021/07/16 04:17:10;;;;;;;1999.90;999.90;;;;;;;16.81;54.29;101118.75;4831335;29;97450;-69
2021/07/16 04:19:39;;;;;;;1999.90;999.90;;;;;;;16.84;54.05;101126.81;4831013;29;97086;-69
2021/07/16 04:22:07;;;;;;;1999.90;999.90;;;;;;;16.82;54.25;101132.19;4845816;29;99550;-70
2021/07/16 04:24:35;;;;;;;1999.90;999.90;;;;;;;16.79;54.17;101125.91;4828390;29;96943;-69
2021/07/16 04:27:03;;;;;;;1999.90;999.90;;;;;;;16.74;54.64;101130.41;4832341;29;97002;-69
2021/07/16 04:29:33;;;;;;;1999.90;999.90;;;;;;;16.73;54.61;101131.28;4829779;29;99636;-70
2021/07/16 04:32:02;;;;;;;1999.90;999.90;;;;;;;16.63;55.06;101140.19;4829189;29;97683;-70
2021/07/16 04:34:31;;;;;;;1999.90;999.90;;;;;;;16.53;55.13;101147.34;4860359;28;97235;-69
2021/07/16 04:37:01;;;;;;;1999.90;999.90;;;;;;;16.53;55.17;101146.41;4859266;28;96910;-70
2021/07/16 04:39:29;;;;;;;1999.90;999.90;;;;;;;16.51;54.94;101150.91;4844776;28;98835;-69
2021/07/16 04:41:57;;;;;;;1999.90;999.90;;;;;;;16.53;54.94;101144.66;4843788;28;99762;-69
2021/07/16 04:44:25;;;;;;;1999.90;999.90;;;;;;;16.58;55.10;101148.22;4831197;29;97520;-70
2021/07/16 04:46:56;;;;;;;1999.90;999.90;;;;;;;16.57;55.03;101151.81;4859096;28;97142;-69
2021/07/16 04:49:24;;;;;;;1999.90;999.90;;;;;;;16.54;54.79;101150.91;4825329;29;100225;-69
2021/07/16 04:51:52;;;;;;;1999.90;999.90;;;;;;;16.57;54.80;101156.28;4827236;29;97497;-69
2021/07/16 04:54:22;;;;;;;1999.90;999.90;;;;;;;16.60;54.73;101158.97;4842985;29;98315;-70
2021/07/16 04:56:50;;;;;;;1999.90;999.90;;;;;;;16.57;54.94;101157.19;4831158;29;96903;-69
2021/07/16 04:59:18;;;;;;;1999.90;999.90;;;;;;;16.56;55.02;101160.75;4859632;28;99438;-69
2021/07/16 05:01:45;;;;;;;1999.90;999.90;;;;;;;16.52;55.12;101152.69;4830413;29;98706;-68
2021/07/16 05:04:19;;;;;;;1999.90;999.90;;;;;;;16.55;54.76;101158.06;4829597;29;97715;-68
2021/07/16 05:06:46;;;;;;;1999.90;999.90;;;;;;;16.54;55.22;101158.97;4831216;29;97293;-70
2021/07/16 05:09:14;;;;;;;1999.90;999.90;;;;;;;16.52;55.11;101158.06;4829914;29;97319;-69
2021/07/16 05:11:43;;;;;;;1999.90;999.90;;;;;;;16.50;55.31;101160.75;4803988;29;98116;-68
2021/07/16 05:14:11;;;;;;;1999.90;999.90;;;;;;;16.52;55.25;101171.50;4817858;29;97994;-69
2021/07/16 05:16:42;;;;;;;1999.90;999.90;;;;;;;16.45;55.18;101169.72;4824479;29;98109;-68
2021/07/16 05:19:10;;;;;;;1999.90;999.90;;;;;;;16.48;54.95;101172.38;4827664;29;97718;-70
2021/07/16 05:21:39;;;;;;;1999.90;999.90;;;;;;;16.56;55.01;101178.69;4827917;29;99989;-69
2021/07/16 05:24:07;;;;;;;1999.90;999.90;;;;;;;16.62;54.89;101176.91;4829449;29;97216;-69
2021/07/16 05:26:35;;;;;;;1999.90;999.90;;;;;;;16.65;54.78;101171.53;4828482;29;98109;-69
2021/07/16 05:29:04;;;;;;;1999.90;999.90;;;;;;;16.69;54.76;101183.22;4829410;29;97651;-69
2021/07/16 05:31:31;;;;;;;1999.90;999.90;;;;;;;16.71;54.59;101176.06;4829373;29;97958;-68
2021/07/16 05:33:59;;;;;;;1999.90;999.90;;;;;;;16.72;54.78;101183.25;4830874;29;97269;-69
2021/07/16 05:36:27;;;;;;;1999.90;999.90;;;;;;;16.75;54.38;101186.84;4831174;29;98186;-69
2021/07/16 05:38:58;;;;;;;1999.90;999.90;;;;;;;16.78;54.79;101184.13;4835565;29;97763;-69
2021/07/16 05:41:25;;;;;;;1999.90;999.90;;;;;;;16.82;54.59;101198.47;4871081;28;98550;-79
2021/07/16 05:43:53;;;;;;;1999.90;999.90;;;;;;;16.78;54.67;101194.03;4839743;29;96916;-76
2021/07/16 05:46:22;;;;;;;1999.90;999.90;;;;;;;16.75;54.81;101202.06;4840803;29;97268;-75
2021/07/16 05:48:50;;;;;;;1999.90;999.90;;;;;;;16.73;54.85;101209.22;4852316;29;97672;-72
2021/07/16 05:51:18;;;;;;;1999.90;999.90;;;;;;;16.70;54.82;101202.06;4842282;29;97933;-74
2021/07/16 05:53:46;;;;;;;1999.90;999.90;;;;;;;16.69;55.03;101212.78;4835057;29;97404;-69
2021/07/16 05:56:15;;;;;;;1999.90;999.90;;;;;;;16.65;54.86;101213.66;4845187;29;97654;-69
2021/07/16 05:58:43;;;;;;;1999.90;999.90;;;;;;;16.65;54.86;101216.34;4830595;29;97709;-69
2021/07/16 06:01:10;;;;;;;1999.90;999.90;;;;;;;16.64;54.76;101212.75;4830400;29;97529;-69
2021/07/16 06:03:38;;;;;;;1999.90;999.90;;;;;;;16.66;54.91;101212.75;4831242;29;97269;-69
2021/07/16 06:06:06;;;;;;;1999.90;999.90;;;;;;;16.65;55.27;101209.16;4829034;29;97629;-69
2021/07/16 06:08:34;;;;;;;1999.90;999.90;;;;;;;17.03;55.71;101218.25;4845323;29;98706;-69
2021/07/16 06:11:02;;;;;;;1999.90;999.90;;;;;;;16.85;55.87;101218.19;4831642;29;100667;-70
2021/07/16 06:13:31;;;;;;;1999.90;999.90;;;;;;;17.23;55.87;101220.06;4831194;29;97369;-69
2021/07/16 06:15:59;;;;;;;1999.90;999.90;;;;;;;16.98;56.43;101220.03;4832334;29;97165;-69
2021/07/16 06:18:27;;;;;;;1999.90;999.90;;;;;;;16.91;56.10;101217.31;4832786;29;97893;-68
2021/07/16 06:20:54;;;;;;;1999.90;999.90;;;;;;;16.83;56.22;101220.03;4833303;29;97734;-69
2021/07/16 06:23:23;;;;;;;1999.90;999.90;;;;;;;16.72;56.23;101215.50;4832547;29;97341;-69
2021/07/16 06:25:51;;;;;;;1999.90;999.90;;;;;;;16.70;55.92;101218.19;4830292;29;96894;-69
2021/07/16 06:28:18;;;;;;;1999.90;999.90;;;;;;;16.68;55.91;101228.00;4833835;29;98066;-69
2021/07/16 06:30:48;;;;;;;1999.90;999.90;;;;;;;16.62;56.08;101236.03;4831193;29;98484;-70
2021/07/16 06:33:16;;;;;;;1999.90;999.90;;;;;;;16.59;56.05;101230.66;4832164;29;97557;-69
2021/07/16 06:35:43;;;;;;;1999.90;999.90;;;;;;;16.50;56.21;101224.34;4831208;29;96977;-69
2021/07/16 06:38:11;;;;;;;1999.90;999.90;;;;;;;16.51;56.34;101231.50;4832256;29;97871;-69
2021/07/16 06:40:39;;;;;;;1999.90;999.90;;;;;;;16.53;56.07;101236.00;4830473;29;99856;-69
2021/07/16 06:43:09;;;;;;;1999.90;999.90;;;;;;;16.54;55.92;101243.16;4834024;29;98270;-69
2021/07/16 06:45:38;;;;;;;1999.90;999.90;;;;;;;16.51;56.23;101242.25;4846607;29;97748;-69
2021/07/16 06:48:07;;;;;;;1999.90;999.90;;;;;;;16.55;56.06;101244.97;4829044;29;100562;-69
2021/07/16 06:50:35;;;;;;;1999.90;999.90;;;;;;;16.51;56.19;101245.84;4829496;29;100761;-69
2021/07/16 06:53:03;;;;;;;1999.90;999.90;;;;;;;16.45;56.35;101250.28;4830796;29;97653;-69
2021/07/16 06:55:31;;;;;;;1999.90;999.90;;;;;;;16.41;56.57;101253.84;4860015;28;97930;-69
2021/07/16 06:57:59;;;;;;;1999.90;999.90;;;;;;;16.39;56.51;101250.25;4824493;29;100264;-69
2021/07/16 07:00:26;;;;;;;1999.90;999.90;;;;;;;16.34;56.24;101254.72;4833019;29;97928;-69
2021/07/16 07:02:54;;;;;;;1999.90;999.90;;;;;;;16.34;56.39;101261.00;4833241;29;97006;-69
2021/07/16 07:05:25;;;;;;;1999.90;999.90;;;;;;;16.39;56.20;101253.84;4830401;29;97524;-69
2021/07/16 07:07:53;;;;;;;1999.90;999.90;;;;;;;16.79;56.63;101254.94;4831850;29;97703;-69
2021/07/16 07:10:21;;;;;;;1999.90;999.90;;;;;;;16.58;56.94;101253.03;4831697;29;100994;-69
2021/07/16 07:12:49;;;;;;;1999.90;999.90;;;;;;;16.50;56.89;101264.63;4831030;29;98097;-69
2021/07/16 07:15:17;;;;;;;1999.90;999.90;;;;;;;16.51;56.69;101267.31;4833397;29;97532;-69
2021/07/16 07:17:45;;;;;;;1999.90;999.90;;;;;;;16.53;56.51;101272.69;4846355;29;98169;-69
2021/07/16 07:20:13;;;;;;;1999.90;999.90;;;;;;;16.52;56.52;101274.53;4829830;29;98635;-68
2021/07/16 07:22:43;;;;;;;1999.90;999.90;;;;;;;16.51;56.54;101275.38;4860478;28;97223;-69
2021/07/16 07:25:11;;;;;;;1999.90;999.90;;;;;;;16.53;56.68;101273.59;4831034;29;97383;-69
2021/07/16 07:27:39;;;;;;;1999.90;999.90;;;;;;;16.56;56.59;101270.06;4815737;29;100394;-69
2021/07/16 07:30:08;;;;;;;1999.90;999.90;;;;;;;16.55;56.21;101277.22;4814806;29;98036;-70
2021/07/16 07:32:36;;;;;;;1999.90;999.90;;;;;;;16.52;56.40;101277.19;4831467;29;97599;-70
2021/07/16 07:35:07;;;;;;;1999.90;999.90;;;;;;;16.56;56.39;101278.13;4832286;29;96914;-70
2021/07/16 07:37:35;;;;;;;1999.90;999.90;;;;;;;16.57;56.15;101282.59;4833012;29;97166;-69
2021/07/16 07:40:07;;;;;;;1999.90;999.90;;;;;;;16.59;56.24;101276.34;4845374;29;96973;-69
2021/07/16 07:42:35;;;;;;;1999.90;999.90;;;;;;;16.59;56.38;101287.09;4833001;29;97825;-69
2021/07/16 07:45:04;;;;;;;1999.90;999.90;;;;;;;16.63;56.16;101285.31;4846285;29;97810;-69
2021/07/16 07:47:33;;;;;;;1999.90;999.90;;;;;;;16.65;56.19;101287.09;4859839;28;98076;-68
2021/07/16 07:50:05;;;;;;;1999.90;999.90;;;;;;;16.70;56.12;101284.44;4830702;29;98624;-69
2021/07/16 07:52:33;;;;;;;1999.90;999.90;;;;;;;16.77;55.64;101278.22;4831291;29;97142;-69
2021/07/16 07:55:02;;;;;;;1999.90;999.90;;;;;;;16.80;55.69;101281.81;4830131;29;98048;-69
2021/07/16 07:57:31;;;;;;;1999.90;999.90;;;;;;;16.77;56.15;101289.88;4846341;29;98647;-69
2021/07/16 07:59:59;;;;;;;1999.90;999.90;;;;;;;16.76;55.95;101292.56;4845183;29;97031;-70
2021/07/16 08:02:27;;;;;;;1999.90;999.90;;;;;;;16.76;55.77;101290.75;4831022;29;99152;-68
2021/07/16 08:04:55;;;;;;;1999.90;999.90;;;;;;;16.81;56.05;101297.06;4832116;29;97472;-70
2021/07/16 08:07:22;;;;;;;1999.90;999.90;;;;;;;16.87;55.73;101296.19;4830931;29;97778;-69
2021/07/16 08:09:50;;;;;;;1999.90;999.90;;;;;;;16.91;55.73;101297.97;4832067;29;99583;-69
2021/07/16 08:12:18;;;;;;;1999.90;999.90;;;;;;;16.90;55.74;101296.19;4844677;29;96979;-68
2021/07/16 08:14:47;;;;;;;1999.90;999.90;;;;;;;16.88;55.84;101306.94;4861051;28;97651;-69
2021/07/16 08:17:15;;;;;;;1999.90;999.90;;;;;;;16.89;55.84;101297.97;4814910;29;97878;-69
2021/07/16 08:19:43;;;;;;;1999.90;999.90;;;;;;;16.93;55.67;101309.63;4830483;29;97982;-69
2021/07/16 08:22:11;;;;;;;1999.90;999.90;;;;;;;16.99;55.58;101299.81;4831848;29;97986;-69
2021/07/16 08:24:39;;;;;;;1999.90;999.90;;;;;;;17.04;55.48;101307.88;4860242;28;97117;-68
2021/07/16 08:27:07;;;;;;;1999.90;999.90;;;;;;;17.06;55.47;101309.69;4829799;29;98615;-69
2021/07/16 08:29:35;;;;;;;1999.90;999.90;;;;;;;17.07;55.09;101313.28;4829371;29;97063;-69
2021/07/16 08:32:05;;;;;;;1999.90;999.90;;;;;;;17.07;55.51;101321.34;4844522;29;98751;-68
2021/07/16 08:34:33;;;;;;;1999.90;999.90;;;;;;;17.06;55.39;101319.53;4845540;28;97010;-69
2021/07/16 08:37:01;;;;;;;1999.90;999.90;;;;;;;17.12;55.43;101326.72;4844930;29;99610;-69
2021/07/16 08:39:29;;;;;;;1999.90;999.90;;;;;;;17.16;55.18;101318.69;4829981;29;97281;-69
2021/07/16 08:41:58;;;;;;;1999.90;999.90;;;;;;;17.23;54.86;101323.19;4844690;29;97694;-68
2021/07/16 08:44:27;;;;;;;1999.90;999.90;;;;;;;17.31;54.84;101323.22;4831105;29;97284;-68
2021/07/16 08:46:55;;;;;;;1999.90;999.90;;;;;;;17.35;54.81;101322.28;4845926;29;99022;-68
2021/07/16 08:49:25;;;;;;;1999.90;999.90;;;;;;;17.37;54.61;101315.13;4808640;29;97991;-68
2021/07/16 08:51:53;;;;;;;1999.90;999.90;;;;;;;17.41;54.54;101330.41;4812973;29;97435;-69
2021/07/16 08:54:22;;;;;;;1999.90;999.90;;;;;;;17.42;54.58;101325.03;4828830;29;97563;-69
2021/07/16 08:56:50;;;;;;;1999.90;999.90;;;;;;;17.41;54.58;101328.63;4830111;29;97112;-68
2021/07/16 08:59:18;;;;;;;1999.90;999.90;;;;;;;17.38;54.78;101323.25;4829590;29;97794;-69
2021/07/16 09:01:46;;;;;;;1999.90;999.90;;;;;;;17.39;54.69;101327.72;4860267;28;97489;-69
2021/07/16 09:04:15;;;;;;;1999.90;999.90;;;;;;;17.44;54.56;101334.00;4829763;29;96942;-68
2021/07/16 09:06:45;;;;;;;1999.90;999.90;;;;;;;17.48;54.62;101325.06;4813945;29;98545;-69
2021/07/16 09:09:13;;;;;;;1999.90;999.90;;;;;;;17.52;54.39;101332.25;4828748;29;98492;-68
2021/07/16 09:11:42;;;;;;;1999.90;999.90;;;;;;;17.53;54.25;101328.63;4844934;29;98638;-69
2021/07/16 09:14:18;;;;;;;1999.90;999.90;;;;;;;17.47;54.58;101331.34;4815631;29;96999;-68
2021/07/16 09:16:57;;;;;;;1999.90;999.90;;;;;;;17.44;54.66;101325.03;4844541;29;97980;-69
2021/07/16 09:19:30;;;;;;;1999.90;999.90;;;;;;;17.40;54.75;101320.56;4860074;28;101726;-69
2021/07/16 09:22:09;;;;;;;1999.90;999.90;;;;;;;17.38;54.77;101322.34;4829660;29;96926;-69
2021/07/16 09:24:41;;;;;;;1999.90;999.90;;;;;;;17.36;54.77;101327.69;4831233;29;97242;-69
2021/07/16 09:27:34;;;;;;;1999.90;999.90;;;;;;;17.37;55.01;101320.50;4859122;28;96956;-68
2021/07/16 09:30:29;;;;;;;1999.90;999.90;;;;;;;17.42;54.85;101332.22;4830765;29;98566;-68
2021/07/16 09:32:58;;;;;;;1999.90;999.90;;;;;;;17.46;54.49;101326.84;4818369;29;97360;-68
2021/07/16 09:35:28;;;;;;;1999.90;999.90;;;;;;;17.48;54.33;101324.16;4828652;29;97107;-69
2021/07/16 09:37:59;;;;;;;1999.90;999.90;;;;;;;17.51;54.42;101338.50;4813734;29;98536;-69
2021/07/16 09:40:29;;;;;;;1999.90;999.90;;;;;;;17.51;54.47;101330.44;4829412;29;98829;-68
2021/07/16 09:43:05;;;;;;;1999.90;999.90;;;;;;;17.44;54.53;101331.31;4830063;29;96921;-68
2021/07/16 09:45:34;;;;;;;1999.90;999.90;;;;;;;17.42;54.62;101329.53;4832971;29;97834;-69
2021/07/16 09:48:21;;;;;;;1999.90;999.90;;;;;;;17.36;55.11;101333.09;4832278;29;98533;-69
2021/07/16 09:50:49;;;;;;;1999.90;999.90;;;;;;;17.34;54.68;101326.81;4863876;28;98897;-69
2021/07/16 09:53:26;;;;;;;1999.90;999.90;;;;;;;17.33;54.72;101330.38;4846524;29;96909;-69
2021/07/16 09:56:10;;;;;;;1999.90;999.90;;;;;;;17.40;54.74;101332.19;4862867;28;97159;-69
2021/07/16 09:58:39;;;;;;;1999.90;999.90;;;;;;;17.46;54.48;101329.53;4833494;29;97742;-68
2021/07/16 10:01:06;;;;;;;1999.90;999.90;;;;;;;17.46;54.34;101334.91;4833838;29;98311;-69
2021/07/16 10:03:35;;;;;;;1999.90;999.90;;;;;;;17.53;54.25;101336.72;4831548;29;97876;-69
2021/07/16 10:06:03;;;;;;;1999.90;999.90;;;;;;;17.58;54.21;101334.03;4835055;29;96913;-69
2021/07/16 10:08:34;;;;;;;1999.90;999.90;;;;;;;17.64;54.21;101336.72;4841832;29;101920;-68
2021/07/16 10:11:04;;;;;;;1999.90;999.90;;;;;;;17.64;54.03;101332.25;4843611;29;97715;-69
2021/07/16 10:13:33;;;;;;;1999.90;999.90;;;;;;;17.68;53.98;101343.91;4832604;29;98042;-68
2021/07/16 10:16:02;;;;;;;1999.90;999.90;;;;;;;17.73;53.79;101350.22;4831824;29;98364;-69
2021/07/16 10:18:30;;;;;;;1999.90;999.90;;;;;;;17.79;53.81;101342.13;4831893;29;99372;-68
2021/07/16 10:20:58;;;;;;;1999.90;999.90;;;;;;;17.85;53.50;101352.91;4830903;29;97769;-69
2021/07/16 10:23:27;;;;;;;1999.90;999.90;;;;;;;17.90;53.62;101351.09;4833933;29;97505;-69
2021/07/16 10:25:57;;;;;;;1999.90;999.90;;;;;;;17.87;53.46;101348.41;4833657;29;97762;-69
2021/07/16 10:28:42;;;;;;;1999.90;999.90;;;;;;;17.90;53.66;101354.69;4832457;29;98391;-69
2021/07/16 10:31:32;;;;;;;1999.90;999.90;;;;;;;17.93;53.54;101349.31;4862390;28;100638;-68
2021/07/16 10:34:02;;;;;;;1999.90;999.90;;;;;;;17.97;53.43;101361.88;4863321;28;97694;-69
2021/07/16 10:36:44;;;;;;;1999.90;999.90;;;;;;;18.00;53.29;101363.69;4831811;29;97033;-69
2021/07/16 10:39:13;;;;;;;1999.90;999.90;;;;;;;18.04;53.38;101365.50;4845536;29;98684;-69
2021/07/16 10:41:42;;;;;;;1999.90;999.90;;;;;;;18.08;53.08;101366.38;4862376;28;98022;-69
2021/07/16 10:44:12;;;;;;;1999.90;999.90;;;;;;;18.07;53.10;101370.00;4831738;29;97387;-69
2021/07/16 10:46:44;;;;;;;1999.90;999.90;;;;;;;18.08;53.31;101369.97;4832434;29;98179;-69
2021/07/16 10:49:14;;;;;;;1999.90;999.90;;;;;;;18.11;53.11;101378.09;4861630;28;99840;-68
2021/07/16 10:51:42;;;;;;;1999.90;999.90;;;;;;;18.13;53.16;101383.47;4826655;29;97894;-68
2021/07/16 10:54:11;;;;;;;1999.90;999.90;;;;;;;18.17;52.80;101377.19;4831235;29;97813;-69
2021/07/16 10:56:43;;;;;;;1999.90;999.90;;;;;;;18.21;53.01;101390.63;4831057;29;96955;-68